createdAt,value
2018-12-13T00:03:13.469Z,37.13
2018-12-13T00:08:18.426Z,32.17
2018-12-13T00:13:21.532Z,35.00
2018-12-13T00:18:24.359Z,42.37
2018-12-13T00:23:27.166Z,41.63
2018-12-13T00:28:29.957Z,49.37
2018-12-13T00:33:32.829Z,47.10
2018-12-13T00:38:35.524Z,48.97
2018-12-13T00:43:38.253Z,54.50
2018-12-13T00:48:41.275Z,51.67
2018-12-13T00:53:43.993Z,56.13
2018-12-13T00:58:46.975Z,53.53
2018-12-13T01:03:49.966Z,59.83
2018-12-13T01:08:53.166Z,59.80
2018-12-13T01:13:56.106Z,55.23
2018-12-13T01:18:59.006Z,56.80
2018-12-13T01:24:01.739Z,60.93
2018-12-13T01:29:04.639Z,59.37
2018-12-13T01:34:08.609Z,57.07
2018-12-13T01:39:11.515Z,59.77
2018-12-13T01:44:14.316Z,54.40
2018-12-13T01:49:17.221Z,55.70
2018-12-13T01:54:19.965Z,55.87
2018-12-13T01:59:23.211Z,51.53
2018-12-13T02:04:25.991Z,52.97
2018-12-13T02:09:29.046Z,52.50
2018-12-13T02:14:32.010Z,51.20
2018-12-13T02:19:34.818Z,49.73
2018-12-13T02:24:37.681Z,43.40
2018-12-13T02:29:43.313Z,42.40
2018-12-13T02:34:46.292Z,41.70
2018-12-13T02:39:49.329Z,43.40
2018-12-13T02:44:51.995Z,40.93
2018-12-13T02:49:54.896Z,36.00
2018-12-13T02:54:57.935Z,41.53
2018-12-13T03:00:00.759Z,43.57
2018-12-13T03:05:04.739Z,43.70
2018-12-13T03:10:08.289Z,42.10
2018-12-13T03:15:11.083Z,41.77
2018-12-13T03:20:14.288Z,42.00
2018-12-13T03:25:17.464Z,44.70
2018-12-13T03:30:20.286Z,40.57
2018-12-13T03:35:23.337Z,41.27
2018-12-13T03:40:28.478Z,40.63
2018-12-13T03:45:31.922Z,42.80
2018-12-13T03:50:34.803Z,43.63
2018-12-13T03:55:38.152Z,42.30
2018-12-13T04:00:41.896Z,47.07
2018-12-13T04:05:45.119Z,46.97
2018-12-13T04:10:48.067Z,41.93
2018-12-13T04:15:50.949Z,41.57
2018-12-13T04:20:53.908Z,42.77
2018-12-13T04:25:57.043Z,44.67
2018-12-13T04:31:00.029Z,43.53
2018-12-13T04:36:02.945Z,46.70
2018-12-13T04:41:05.897Z,44.30
2018-12-13T04:46:08.832Z,52.57
2018-12-13T04:51:11.700Z,41.50
2018-12-13T04:56:14.595Z,42.30
2018-12-13T05:01:17.669Z,47.03
2018-12-13T05:06:20.542Z,43.50
2018-12-13T05:11:23.413Z,46.33
2018-12-13T05:16:26.265Z,47.13
2018-12-13T05:21:29.014Z,45.23
2018-12-13T05:26:31.756Z,45.97
2018-12-13T05:31:34.741Z,46.33
2018-12-13T05:36:38.004Z,44.77
2018-12-13T05:41:40.787Z,44.10
2018-12-13T05:46:43.608Z,43.17
2018-12-13T05:51:46.257Z,50.07
2018-12-13T05:56:49.135Z,48.93
2018-12-13T06:01:51.950Z,46.97
2018-12-13T06:06:54.911Z,47.90
2018-12-13T06:11:58.778Z,47.73
2018-12-13T06:17:02.348Z,47.90
2018-12-13T06:22:05.255Z,54.77
2018-12-13T06:27:08.402Z,52.67
2018-12-13T06:32:11.388Z,45.90
2018-12-13T06:37:14.422Z,47.77
2018-12-13T06:42:17.098Z,49.43
2018-12-13T06:47:19.852Z,46.60
2018-12-13T06:52:22.900Z,47.53
2018-12-13T06:57:25.965Z,45.60
2018-12-13T07:02:29.374Z,40.27
2018-12-13T07:07:32.177Z,45.30
2018-12-13T07:12:35.041Z,40.77
2018-12-13T07:17:37.755Z,37.10
2018-12-13T07:22:40.749Z,36.93
2018-12-13T07:27:43.490Z,38.17
2018-12-13T07:32:46.293Z,39.93
2018-12-13T07:37:49.104Z,39.07
2018-12-13T07:42:51.974Z,40.70
2018-12-13T07:47:54.864Z,38.97
2018-12-13T07:52:57.760Z,43.10
2018-12-13T07:58:00.473Z,38.60
2018-12-13T08:03:03.456Z,36.57
2018-12-13T08:08:06.495Z,37.30
2018-12-13T08:13:11.163Z,39.47
2018-12-13T08:18:13.886Z,32.80
2018-12-13T08:23:18.833Z,37.03
2018-12-13T08:28:21.760Z,38.13
2018-12-13T08:33:24.661Z,35.47
2018-12-13T08:38:27.518Z,33.53
2018-12-13T08:43:30.644Z,35.83
2018-12-13T08:48:33.556Z,38.47
2018-12-13T08:53:36.261Z,32.27
2018-12-13T08:58:38.972Z,33.90
2018-12-13T09:03:42.100Z,29.43
2018-12-13T09:08:44.926Z,34.93
2018-12-13T09:13:47.746Z,27.83
2018-12-13T09:18:50.649Z,32.67
2018-12-13T09:23:53.536Z,30.47
2018-12-13T09:28:56.232Z,32.97
2018-12-13T09:33:59.164Z,31.70
2018-12-13T09:39:02.256Z,28.77
2018-12-13T09:49:22.909Z,29.23
2018-12-13T09:54:27.032Z,34.17
2018-12-13T09:59:30.066Z,29.00
2018-12-13T10:04:32.772Z,31.73
2018-12-13T10:09:35.865Z,33.00
2018-12-13T10:14:38.633Z,29.00
2018-12-13T10:19:41.504Z,28.57
2018-12-13T10:24:44.296Z,33.03
2018-12-13T10:29:47.383Z,32.07
2018-12-13T10:34:50.137Z,30.13
2018-12-13T10:39:52.885Z,29.70
2018-12-13T10:44:55.644Z,31.67
2018-12-13T10:49:58.412Z,29.83
2018-12-13T10:55:01.237Z,39.87
2018-12-13T11:05:27.328Z,29.03
2018-12-13T11:10:30.476Z,37.00
2018-12-13T11:15:33.452Z,30.57
2018-12-13T11:20:36.346Z,31.90
2018-12-13T11:25:39.321Z,32.83
2018-12-13T11:30:42.346Z,33.50
2018-12-13T11:35:45.369Z,29.40
2018-12-13T11:40:48.220Z,25.53
2018-12-13T11:45:50.867Z,28.03
2018-12-13T11:50:53.804Z,32.27
2018-12-13T11:55:56.739Z,29.23
2018-12-13T12:00:59.731Z,31.30
2018-12-13T12:06:02.674Z,27.67
2018-12-13T12:11:05.615Z,29.27
2018-12-13T12:16:09.270Z,30.20
2018-12-13T12:21:12.151Z,33.97
2018-12-13T12:26:15.169Z,32.63
2018-12-13T12:31:18.186Z,33.40
2018-12-13T12:36:20.876Z,32.50
2018-12-13T12:41:23.932Z,33.37
2018-12-13T12:46:26.826Z,35.20
2018-12-13T12:51:30.026Z,38.13
2018-12-13T12:56:34.028Z,33.67
2018-12-13T13:01:36.808Z,34.90
2018-12-13T13:06:39.543Z,33.43
2018-12-13T13:11:42.407Z,33.40
2018-12-13T13:16:45.226Z,37.20
2018-12-13T13:21:47.997Z,29.77
2018-12-13T13:26:51.747Z,35.13
2018-12-13T13:31:54.684Z,30.50
2018-12-13T13:36:57.542Z,26.13
2018-12-13T13:42:00.898Z,24.43
2018-12-13T13:47:04.824Z,41.23
2018-12-13T13:52:08.679Z,33.00
2018-12-13T13:57:11.934Z,30.87
2018-12-13T14:02:15.762Z,31.97
2018-12-13T14:07:18.884Z,31.57
2018-12-13T14:12:21.632Z,30.20
2018-12-13T14:17:24.396Z,34.77
2018-12-13T14:22:27.357Z,28.07
2018-12-13T14:27:30.077Z,25.77
2018-12-13T14:32:33.040Z,31.73
2018-12-13T14:37:35.855Z,26.90
2018-12-13T14:42:38.724Z,28.33
2018-12-13T14:47:41.440Z,24.40
2018-12-13T14:52:44.348Z,26.47
2018-12-13T14:57:47.255Z,28.80
2018-12-13T15:02:50.092Z,27.83
2018-12-13T15:07:53.368Z,30.43
2018-12-13T15:12:56.163Z,29.40
2018-12-13T15:17:59.022Z,27.83
2018-12-13T15:23:01.745Z,30.23
2018-12-13T15:28:04.630Z,31.00
2018-12-13T15:33:07.583Z,34.47
2018-12-13T15:38:11.346Z,37.43
2018-12-13T15:43:13.982Z,32.17
2018-12-13T15:48:16.828Z,29.03
2018-12-13T15:53:19.504Z,31.50
2018-12-13T15:58:22.608Z,28.83
2018-12-13T16:03:26.089Z,22.53
2018-12-13T16:08:28.931Z,22.73
2018-12-13T16:13:31.688Z,19.07
2018-12-13T16:18:34.380Z,17.47
2018-12-13T16:23:37.141Z,16.30
2018-12-13T16:28:39.879Z,16.53
2018-12-13T16:33:42.644Z,17.43
2018-12-13T16:38:45.492Z,18.53
2018-12-13T16:43:48.373Z,18.73
2018-12-13T16:48:51.248Z,20.50
2018-12-13T16:53:54.081Z,22.13
2018-12-13T16:58:56.844Z,20.00
2018-12-13T17:04:00.594Z,26.03
2018-12-13T17:09:05.848Z,24.60
2018-12-13T17:14:11.017Z,28.13
2018-12-13T17:19:13.944Z,28.43
2018-12-13T17:24:16.703Z,24.37
2018-12-13T17:29:20.150Z,30.57
2018-12-13T17:34:22.932Z,30.43
2018-12-13T17:39:25.872Z,29.57
2018-12-13T17:44:28.756Z,27.63
2018-12-13T17:49:31.594Z,23.13
2018-12-13T17:54:34.366Z,28.77
2018-12-13T17:59:37.266Z,24.33
2018-12-13T18:04:41.021Z,26.37
2018-12-13T18:09:44.058Z,29.57
2018-12-13T18:14:47.064Z,27.67
2018-12-13T18:19:49.812Z,29.97
2018-12-13T18:24:53.706Z,31.50
2018-12-13T18:29:56.344Z,30.33
2018-12-13T18:35:00.361Z,31.67
2018-12-13T18:40:05.166Z,29.83
2018-12-13T18:45:08.528Z,28.40
2018-12-13T18:50:11.638Z,31.57
2018-12-13T18:55:15.157Z,32.07
2018-12-13T19:00:17.940Z,29.90
2018-12-13T19:05:20.876Z,42.97
2018-12-13T19:10:24.258Z,32.37
2018-12-13T19:15:27.126Z,26.53
2018-12-13T19:20:30.018Z,26.00
2018-12-13T19:25:32.919Z,28.50
2018-12-13T19:30:35.873Z,27.97
2018-12-13T19:35:38.724Z,28.30
2018-12-13T19:40:41.712Z,27.83
2018-12-13T19:45:44.585Z,29.10
2018-12-13T19:50:47.689Z,31.80
2018-12-13T19:55:50.589Z,29.67
2018-12-13T20:00:53.513Z,28.20
2018-12-13T20:05:56.487Z,27.07
2018-12-13T20:10:59.282Z,28.53
2018-12-13T20:16:04.558Z,29.43
2018-12-13T20:21:08.824Z,30.80
2018-12-13T20:26:13.561Z,34.20
2018-12-13T20:31:16.404Z,31.23
2018-12-13T20:36:19.356Z,45.73
2018-12-13T20:41:22.160Z,32.03
2018-12-13T20:46:24.907Z,31.17
2018-12-13T20:51:28.063Z,29.40
2018-12-13T20:56:30.744Z,25.57
2018-12-13T21:01:33.829Z,28.27
2018-12-13T21:06:37.002Z,25.13
2018-12-13T21:11:39.908Z,24.00
2018-12-13T21:16:42.735Z,25.90
2018-12-13T21:21:45.544Z,26.23
2018-12-13T21:26:48.407Z,23.10
2018-12-13T21:31:51.232Z,23.20
2018-12-13T21:36:54.148Z,23.47
2018-12-13T21:41:57.010Z,27.83
2018-12-13T21:46:59.781Z,26.80
2018-12-13T21:52:02.837Z,25.33
2018-12-13T21:57:06.149Z,25.97
2018-12-13T22:02:09.021Z,26.73
2018-12-13T22:07:11.958Z,25.77
2018-12-13T22:12:16.838Z,26.40
2018-12-13T22:17:19.761Z,26.80
2018-12-13T22:22:22.735Z,26.43
2018-12-13T22:27:25.577Z,27.17
2018-12-13T22:32:28.480Z,26.93
2018-12-13T22:37:31.377Z,35.77
2018-12-13T22:42:34.380Z,25.97
2018-12-13T22:47:37.189Z,32.07
2018-12-13T22:52:40.127Z,31.50
2018-12-13T22:57:43.023Z,30.70
2018-12-13T23:02:45.773Z,28.17
2018-12-13T23:07:48.639Z,27.13
2018-12-13T23:12:52.217Z,27.63
2018-12-13T23:17:55.257Z,30.50
2018-12-13T23:22:57.931Z,28.00
2018-12-13T23:28:00.729Z,29.53
2018-12-13T23:33:03.633Z,30.27
2018-12-13T23:38:06.384Z,30.50
2018-12-13T23:43:09.100Z,30.13
2018-12-13T23:48:12.163Z,29.13
2018-12-13T23:53:14.665Z,32.10
2018-12-13T23:58:17.449Z,32.20
